Time;durP1;ratioP1;P1;durP2;ratioP2;P2;SDS_P1;SDS_P2;PMS_P1;PMS_P2;Temp;Humidity;BMP_temperature;BMP_pressure;BME280_temperature;BME280_humidity;BME280_pressure;Samples;Min_cycle;Max_cycle;Signal;HPM_P1;HPM_P2
2021/04/15 00:00:30;;;;;;;0.00;0.00;;;15.10;63.50;;;;;;4226713;28;20047;-43
2021/04/15 00:02:53;;;;;;;0.00;0.00;;;15.10;63.20;;;;;;4214909;28;20051;-42
2021/04/15 00:05:24;;;;;;;0.00;0.00;;;15.20;63.30;;;;;;4210291;28;20505;-42
2021/04/15 00:07:45;;;;;;;0.00;0.00;;;15.10;63.10;;;;;;4209692;28;20131;-44
2021/04/15 00:10:09;;;;;;;0.80;0.80;;;15.20;63.10;;;;;;4209605;28;20113;-42
2021/04/15 00:12:29;;;;;;;0.00;0.00;;;15.20;63.10;;;;;;4209678;28;20497;-43
2021/04/15 00:14:50;;;;;;;0.00;0.00;;;15.10;63.10;;;;;;4209228;28;20130;-42
2021/04/15 00:17:11;;;;;;;0.00;0.00;;;15.10;63.10;;;;;;4218652;28;20156;-42
2021/04/15 00:19:32;;;;;;;1.20;1.20;;;15.10;64.00;;;;;;4226278;28;20071;-42
2021/04/15 00:21:53;;;;;;;0.00;0.00;;;15.10;63.20;;;;;;4218167;28;20056;-45
2021/04/15 00:24:16;;;;;;;0.00;0.00;;;15.00;63.20;;;;;;4221797;28;20082;-43
2021/04/15 00:26:38;;;;;;;0.00;0.00;;;15.00;63.20;;;;;;4226472;28;20073;-42
2021/04/15 00:28:58;;;;;;;;;;;15.00;63.30;;;;;;4193323;28;20060;-43
2021/04/15 00:31:21;;;;;;;0.00;0.00;;;14.90;63.40;;;;;;4195738;28;19920;-43
2021/04/15 00:33:42;;;;;;;0.00;0.00;;;14.90;63.40;;;;;;4213136;28;20071;-44
2021/04/15 00:36:04;;;;;;;;;;;14.90;63.60;;;;;;4225574;28;20063;-43
2021/04/15 00:38:27;;;;;;;0.68;0.68;;;15.10;63.50;;;;;;4225953;28;19924;-42
2021/04/15 00:40:50;;;;;;;0.00;0.00;;;15.20;63.10;;;;;;4225832;28;20054;-45
2021/04/15 00:43:13;;;;;;;0.00;0.00;;;15.30;62.80;;;;;;4225554;28;20051;-45
2021/04/15 00:45:44;;;;;;;0.20;0.20;;;15.30;62.60;;;;;;4226095;28;20787;-45
2021/04/15 00:48:09;;;;;;;0.00;0.00;;;15.30;62.50;;;;;;4208636;28;20051;-44
2021/04/15 00:50:34;;;;;;;0.00;0.00;;;15.30;62.60;;;;;;4208807;28;20468;-44
2021/04/15 00:53:01;;;;;;;0.00;0.00;;;15.20;62.60;;;;;;4208854;28;20569;-43
2021/04/15 00:55:27;;;;;;;0.00;0.00;;;15.20;62.70;;;;;;4212667;28;20074;-44
2021/04/15 00:57:49;;;;;;;0.00;0.00;;;15.20;62.80;;;;;;4225361;28;20420;-42
2021/04/15 01:00:12;;;;;;;0.03;0.03;;;15.20;62.90;;;;;;4208743;28;21775;-44
2021/04/15 01:02:36;;;;;;;3.35;0.45;;;15.20;62.90;;;;;;4211655;28;20056;-46
2021/04/15 01:04:59;;;;;;;0.00;0.00;;;15.20;62.80;;;;;;4225695;28;20116;-43
2021/04/15 01:07:21;;;;;;;0.00;0.00;;;15.20;62.80;;;;;;4225540;28;20044;-42
2021/04/15 01:09:43;;;;;;;0.00;0.00;;;15.20;62.80;;;;;;4210151;28;20139;-44
2021/04/15 01:12:15;;;;;;;0.00;0.00;;;15.30;62.70;;;;;;4208666;28;20048;-43
2021/04/15 01:14:52;;;;;;;0.00;0.00;;;15.30;62.50;;;;;;4225138;28;20454;-42
2021/04/15 01:17:22;;;;;;;0.00;0.00;;;15.30;62.40;;;;;;4223696;28;20058;-42
2021/04/15 01:20:12;;;;;;;0.00;0.00;;;15.40;62.30;;;;;;4209934;28;20105;-42
2021/04/15 01:23:02;;;;;;;0.00;0.00;;;15.50;62.20;;;;;;4209660;28;20054;-43
2021/04/15 01:25:38;;;;;;;0.00;0.00;;;15.70;61.30;;;;;;4191161;28;20119;-46
2021/04/15 01:28:06;;;;;;;0.00;0.00;;;16.00;60.20;;;;;;4192890;28;20040;-43
2021/04/15 01:30:33;;;;;;;0.00;0.00;;;16.10;59.50;;;;;;4207972;28;20105;-43
2021/04/15 01:33:01;;;;;;;0.00;0.00;;;16.20;59.30;;;;;;4215270;28;20071;-43
2021/04/15 01:35:28;;;;;;;0.00;0.00;;;16.20;59.30;;;;;;4216819;28;20051;-45
2021/04/15 01:37:57;;;;;;;0.00;0.00;;;16.10;59.40;;;;;;4206933;28;20077;-44
2021/04/15 01:40:25;;;;;;;0.00;0.00;;;16.00;59.50;;;;;;4223189;28;20546;-44
2021/04/15 01:42:53;;;;;;;0.00;0.00;;;16.00;59.70;;;;;;4224762;28;20043;-43
2021/04/15 01:45:15;;;;;;;0.00;0.00;;;15.90;59.80;;;;;;4225014;28;20405;-44
2021/04/15 01:47:40;;;;;;;0.00;0.00;;;15.90;59.80;;;;;;4225162;28;20071;-42
2021/04/15 01:50:07;;;;;;;0.00;0.00;;;15.90;60.00;;;;;;4224992;28;20092;-48
2021/04/15 01:52:31;;;;;;;0.00;0.00;;;15.80;60.00;;;;;;4224418;28;20047;-46
2021/04/15 01:54:58;;;;;;;0.00;0.00;;;15.80;60.20;;;;;;4224873;28;20039;-43
2021/04/15 01:57:25;;;;;;;0.00;0.00;;;15.80;60.20;;;;;;4225158;28;20051;-43
2021/04/15 01:59:49;;;;;;;0.00;0.00;;;15.80;60.20;;;;;;4221838;28;20051;-42
2021/04/15 02:02:13;;;;;;;0.00;0.00;;;15.70;60.20;;;;;;4224093;28;20471;-43
2021/04/15 02:04:41;;;;;;;0.00;0.00;;;15.70;60.30;;;;;;4222635;28;20134;-43
2021/04/15 02:07:08;;;;;;;0.00;0.00;;;15.60;60.60;;;;;;4205673;28;20100;-43
2021/04/15 02:09:31;;;;;;;0.00;0.00;;;15.70;60.60;;;;;;4207986;28;20657;-43
2021/04/15 02:11:58;;;;;;;0.00;0.00;;;15.80;60.00;;;;;;4224855;28;20387;-44
2021/04/15 02:14:22;;;;;;;0.00;0.00;;;16.00;59.50;;;;;;4223849;28;20043;-43
2021/04/15 02:16:47;;;;;;;0.00;0.00;;;16.00;59.30;;;;;;4223871;28;20051;-43
2021/04/15 02:19:15;;;;;;;0.00;0.00;;;16.10;59.20;;;;;;4224498;28;20509;-47
2021/04/15 02:21:42;;;;;;;0.00;0.00;;;16.10;58.90;;;;;;4209995;28;20486;-43
2021/04/15 02:24:07;;;;;;;0.00;0.00;;;16.20;58.80;;;;;;4224356;28;20072;-48
2021/04/15 02:26:35;;;;;;;0.00;0.00;;;16.20;58.80;;;;;;4224536;28;20051;-43
2021/04/15 02:29:02;;;;;;;0.00;0.00;;;16.10;58.90;;;;;;4223977;28;20054;-43
2021/04/15 02:31:27;;;;;;;0.00;0.00;;;16.10;59.10;;;;;;4215205;28;20426;-43
2021/04/15 02:33:52;;;;;;;0.00;0.00;;;16.00;59.30;;;;;;4212689;28;20066;-43
2021/04/15 02:36:14;;;;;;;0.00;0.00;;;16.00;59.30;;;;;;4224460;28;20055;-45
2021/04/15 02:38:44;;;;;;;0.00;0.00;;;16.10;59.00;;;;;;4204650;28;20105;-44
2021/04/15 02:41:07;;;;;;;0.00;0.00;;;16.10;59.60;;;;;;4193051;28;20491;-42
2021/04/15 02:43:36;;;;;;;0.65;0.65;;;16.10;58.80;;;;;;4206925;28;20048;-42
2021/04/15 02:45:59;;;;;;;0.00;0.00;;;16.10;58.90;;;;;;4200544;28;20040;-43
2021/04/15 02:48:24;;;;;;;0.00;0.00;;;16.20;58.70;;;;;;4191286;28;20083;-42
2021/04/15 02:50:46;;;;;;;0.00;0.00;;;16.20;58.50;;;;;;4224410;28;20409;-44
2021/04/15 02:53:11;;;;;;;0.00;0.00;;;16.20;58.50;;;;;;4211471;28;20045;-43
2021/04/15 02:55:43;;;;;;;0.00;0.00;;;16.20;58.60;;;;;;4208433;28;20048;-45
2021/04/15 02:58:08;;;;;;;0.00;0.00;;;16.10;58.70;;;;;;4223917;28;20062;-46
2021/04/15 03:00:33;;;;;;;0.00;0.00;;;16.30;58.40;;;;;;4225359;28;20134;-43
2021/04/15 03:02:59;;;;;;;0.00;0.00;;;16.40;57.90;;;;;;4224003;28;20054;-42
2021/04/15 03:05:24;;;;;;;0.00;0.00;;;16.50;57.80;;;;;;4224214;28;20520;-43
2021/04/15 03:07:45;;;;;;;0.00;0.00;;;16.50;57.80;;;;;;4241320;28;20550;-43
2021/04/15 03:10:11;;;;;;;0.00;0.00;;;16.40;57.80;;;;;;4232722;28;20044;-43
2021/04/15 03:12:38;;;;;;;0.00;0.00;;;16.40;58.10;;;;;;4211028;28;20146;-47
2021/04/15 03:15:05;;;;;;;0.00;0.00;;;16.30;58.30;;;;;;4223584;28;20071;-44
2021/04/15 03:17:27;;;;;;;0.00;0.00;;;16.20;58.50;;;;;;4206581;28;20083;-42
2021/04/15 03:19:52;;;;;;;0.00;0.00;;;16.10;58.80;;;;;;4189273;28;20068;-42
2021/04/15 03:22:17;;;;;;;0.00;0.00;;;16.00;59.00;;;;;;4190750;28;20041;-42
2021/04/15 03:24:41;;;;;;;0.00;0.00;;;16.10;59.00;;;;;;4190680;28;20048;-44
2021/04/15 03:27:09;;;;;;;0.00;0.00;;;16.10;58.60;;;;;;4190527;28;20052;-43
2021/04/15 03:29:33;;;;;;;0.00;0.00;;;16.20;58.50;;;;;;4190021;28;20048;-44
2021/04/15 03:32:10;;;;;;;0.00;0.00;;;16.20;58.50;;;;;;4205805;28;20044;-43
2021/04/15 03:34:39;;;;;;;0.00;0.00;;;16.10;58.50;;;;;;4220676;28;20047;-43
2021/04/15 03:37:01;;;;;;;0.00;0.00;;;16.10;58.60;;;;;;4208016;28;20097;-43
2021/04/15 03:39:27;;;;;;;0.00;0.00;;;16.20;58.50;;;;;;4210180;28;20552;-43
2021/04/15 03:41:52;;;;;;;0.00;0.00;;;16.20;58.50;;;;;;4206884;28;20052;-45
2021/04/15 03:44:19;;;;;;;0.00;0.00;;;16.10;58.50;;;;;;4206808;28;20123;-42
2021/04/15 03:46:45;;;;;;;0.00;0.00;;;16.20;59.00;;;;;;4207187;28;20650;-42
2021/04/15 03:49:11;;;;;;;0.00;0.00;;;16.40;57.90;;;;;;4207077;28;20048;-45
2021/04/15 03:51:38;;;;;;;0.00;0.00;;;16.40;57.80;;;;;;4206345;28;20047;-42
2021/04/15 03:54:02;;;;;;;0.00;0.00;;;16.30;57.80;;;;;;4205072;28;20040;-42
2021/04/15 03:56:30;;;;;;;0.10;0.10;;;16.30;57.90;;;;;;4208477;28;20150;-43
2021/04/15 03:58:57;;;;;;;0.10;0.10;;;16.20;58.00;;;;;;4209761;28;20093;-46
2021/04/15 04:01:23;;;;;;;0.00;0.00;;;16.30;58.00;;;;;;4202762;28;20047;-42
2021/04/15 04:03:54;;;;;;;0.10;0.10;;;16.30;58.30;;;;;;4193469;28;20453;-49
2021/04/15 04:06:20;;;;;;;0.00;0.00;;;16.30;58.00;;;;;;4194808;28;20059;-43
2021/04/15 04:08:45;;;;;;;0.10;0.10;;;16.20;58.10;;;;;;4209179;28;20047;-44
2021/04/15 04:11:08;;;;;;;0.10;0.10;;;16.10;58.20;;;;;;4210137;28;20112;-46
2021/04/15 04:13:34;;;;;;;0.00;0.00;;;16.10;58.20;;;;;;4209070;28;20387;-44
2021/04/15 04:16:02;;;;;;;0.00;0.00;;;16.10;58.20;;;;;;4197808;28;20062;-42
2021/04/15 04:18:28;;;;;;;0.00;0.00;;;16.10;58.30;;;;;;4225907;28;20067;-48
2021/04/15 04:20:54;;;;;;;0.00;0.00;;;16.00;58.50;;;;;;4226549;28;20066;-44
2021/04/15 04:23:27;;;;;;;0.00;0.00;;;16.10;58.30;;;;;;4226059;28;20505;-43
2021/04/15 04:25:59;;;;;;;0.00;0.00;;;16.20;58.00;;;;;;4225903;28;20058;-47
2021/04/15 04:28:27;;;;;;;0.00;0.00;;;16.20;57.90;;;;;;4225826;28;20449;-42
2021/04/15 04:30:52;;;;;;;0.00;0.00;;;16.20;57.90;;;;;;4227579;27;20093;-43
2021/04/15 04:33:16;;;;;;;0.10;0.10;;;16.20;57.80;;;;;;4226076;27;20486;-42
2021/04/15 04:35:40;;;;;;;0.00;0.00;;;16.40;57.50;;;;;;4226436;28;20168;-42
2021/04/15 04:38:06;;;;;;;0.00;0.00;;;16.50;57.20;;;;;;4226602;27;20565;-42
2021/04/15 04:40:33;;;;;;;0.00;0.00;;;16.50;57.00;;;;;;4226815;27;20070;-43
2021/04/15 04:42:59;;;;;;;0.00;0.00;;;16.50;56.90;;;;;;4215274;27;20356;-43
2021/04/15 04:45:22;;;;;;;0.00;0.00;;;16.50;57.00;;;;;;4196554;28;20045;-44
2021/04/15 04:47:49;;;;;;;0.20;0.20;;;16.60;56.90;;;;;;4192293;28;20078;-42
2021/04/15 04:50:19;;;;;;;0.00;0.00;;;16.60;56.80;;;;;;4218943;28;20407;-46
2021/04/15 04:52:41;;;;;;;0.55;0.55;;;16.50;56.90;;;;;;4226432;27;22331;-42
2021/04/15 04:55:11;;;;;;;0.00;0.00;;;16.50;57.00;;;;;;4226274;27;20065;-42
2021/04/15 04:57:39;;;;;;;0.08;0.08;;;16.60;56.80;;;;;;4225764;27;20413;-42
2021/04/15 05:00:05;;;;;;;0.00;0.00;;;16.80;56.40;;;;;;4213807;28;20422;-42
2021/04/15 05:02:26;;;;;;;1.98;0.73;;;16.90;56.00;;;;;;4204387;28;20086;-42
2021/04/15 05:04:47;;;;;;;0.00;0.00;;;16.90;55.90;;;;;;4208742;28;20498;-42
2021/04/15 05:07:17;;;;;;;0.00;0.00;;;16.90;56.40;;;;;;4208435;28;20048;-43
2021/04/15 05:09:41;;;;;;;0.00;0.00;;;16.90;56.00;;;;;;4222250;28;20545;-42
2021/04/15 05:12:07;;;;;;;0.00;0.00;;;16.90;55.90;;;;;;4225768;28;20043;-42
2021/04/15 05:14:29;;;;;;;0.00;0.00;;;16.80;56.00;;;;;;4210946;28;20059;-43
2021/04/15 05:17:02;;;;;;;0.00;0.00;;;16.80;56.20;;;;;;4223600;28;20079;-42
2021/04/15 05:19:24;;;;;;;0.00;0.00;;;16.70;56.40;;;;;;4225029;28;20048;-42
2021/04/15 05:21:48;;;;;;;0.00;0.00;;;16.60;56.50;;;;;;4209996;28;20495;-42
2021/04/15 05:24:15;;;;;;;0.00;0.00;;;16.70;56.40;;;;;;4225168;28;20058;-42
2021/04/15 05:26:42;;;;;;;0.00;0.00;;;16.90;56.00;;;;;;4225091;28;20078;-43
2021/04/15 05:29:05;;;;;;;0.00;0.00;;;17.10;55.60;;;;;;4225187;28;20203;-42
2021/04/15 05:31:29;;;;;;;0.00;0.00;;;17.20;55.40;;;;;;4209148;28;21118;-41
2021/04/15 05:33:51;;;;;;;0.00;0.00;;;17.30;55.00;;;;;;4213010;28;20040;-42
2021/04/15 05:36:21;;;;;;;0.10;0.10;;;17.30;55.10;;;;;;4225301;28;20489;-42
2021/04/15 05:38:44;;;;;;;0.10;0.10;;;17.30;55.20;;;;;;4207761;28;20055;-43
2021/04/15 05:41:09;;;;;;;0.55;0.55;;;17.30;55.10;;;;;;4193362;28;20048;-42
2021/04/15 05:43:36;;;;;;;0.00;0.00;;;17.20;55.00;;;;;;4205562;28;20407;-46
2021/04/15 05:46:07;;;;;;;0.90;0.90;;;17.20;55.00;;;;;;4217631;28;21084;-43
2021/04/15 05:48:29;;;;;;;0.52;0.52;;;17.10;55.20;;;;;;4207132;28;20040;-43
2021/04/15 05:50:52;;;;;;;8.30;1.65;;;17.00;56.10;;;;;;4207671;28;20062;-41
2021/04/15 05:53:18;;;;;;;0.57;0.57;;;16.90;55.70;;;;;;4190327;28;20052;-41
2021/04/15 05:55:45;;;;;;;0.05;0.05;;;16.70;55.80;;;;;;4190620;28;20040;-44
2021/04/15 05:58:11;;;;;;;0.13;0.13;;;16.60;56.10;;;;;;4208584;28;20565;-44
2021/04/15 06:00:38;;;;;;;1.35;1.25;;;16.40;56.50;;;;;;4198363;28;20501;-41
2021/04/15 06:03:18;;;;;;;0.00;0.00;;;16.30;56.80;;;;;;4208557;28;20097;-41
2021/04/15 06:05:49;;;;;;;0.00;0.00;;;16.10;57.10;;;;;;4208181;28;20078;-41
2021/04/15 06:08:11;;;;;;;0.00;0.00;;;15.90;57.40;;;;;;4204048;28;20056;-44
2021/04/15 06:10:34;;;;;;;0.20;0.20;;;15.80;57.70;;;;;;4224823;28;20058;-42
2021/04/15 06:13:02;;;;;;;0.40;0.40;;;15.70;58.00;;;;;;4222532;27;20489;-42
2021/04/15 06:15:30;;;;;;;0.00;0.00;;;15.60;58.30;;;;;;4207609;28;20055;-42
2021/04/15 06:17:59;;;;;;;0.00;0.00;;;15.50;58.50;;;;;;4199603;28;20056;-41
2021/04/15 06:20:25;;;;;;;0.00;0.00;;;15.40;58.70;;;;;;4192176;28;20118;-43
2021/04/15 06:22:49;;;;;;;0.10;0.10;;;15.40;58.70;;;;;;4224538;28;20118;-42
2021/04/15 06:25:16;;;;;;;0.00;0.00;;;15.40;58.90;;;;;;4220254;28;20051;-42
2021/04/15 06:27:38;;;;;;;0.00;0.00;;;15.30;58.90;;;;;;4224122;28;20047;-43
2021/04/15 06:30:03;;;;;;;0.00;0.00;;;15.30;59.00;;;;;;4216001;28;20358;-48
2021/04/15 06:32:29;;;;;;;0.00;0.00;;;15.40;59.20;;;;;;4218420;27;20498;-45
2021/04/15 06:34:50;;;;;;;0.35;0.35;;;15.40;59.20;;;;;;4200425;28;20048;-42
2021/04/15 06:37:17;;;;;;;0.28;0.28;;;15.40;59.20;;;;;;4205885;28;20106;-42
2021/04/15 06:39:43;;;;;;;0.10;0.10;;;15.30;59.20;;;;;;4212636;28;20485;-42
2021/04/15 06:42:48;;;;;;;0.00;0.00;;;15.30;59.30;;;;;;4201667;28;20395;-43
2021/04/15 06:45:34;;;;;;;0.00;0.00;;;15.30;59.60;;;;;;4218275;28;20052;-44
2021/04/15 06:48:36;;;;;;;0.10;0.10;;;15.30;59.70;;;;;;4224225;28;20130;-44
2021/04/15 06:51:30;;;;;;;0.00;0.00;;;15.50;59.50;;;;;;4203554;28;20043;-46
2021/04/15 06:54:05;;;;;;;0.00;0.00;;;15.60;59.10;;;;;;4157500;28;20058;-43
2021/04/15 06:56:33;;;;;;;0.00;0.00;;;15.70;58.90;;;;;;4191031;28;20040;-45
2021/04/15 06:59:10;;;;;;;36.42;1.08;;;15.80;58.80;;;;;;4210514;28;20772;-43
2021/04/15 07:01:40;;;;;;;0.00;0.00;;;15.80;59.60;;;;;;4207002;28;20125;-42
2021/04/15 07:04:05;;;;;;;0.00;0.00;;;15.80;58.90;;;;;;4216801;28;20058;-41
2021/04/15 07:06:50;;;;;;;0.00;0.00;;;15.80;59.00;;;;;;4204071;28;20049;-43
2021/04/15 07:09:33;;;;;;;0.00;0.00;;;15.70;59.10;;;;;;4207533;28;20548;-41
2021/04/15 07:12:09;;;;;;;0.00;0.00;;;15.70;59.20;;;;;;4204310;28;20059;-41
2021/04/15 07:14:50;;;;;;;0.00;0.00;;;15.60;59.30;;;;;;4198509;28;20043;-42
2021/04/15 07:17:54;;;;;;;0.03;0.03;;;15.60;59.60;;;;;;4223697;28;20059;-41
2021/04/15 07:20:37;;;;;;;0.32;0.32;;;15.50;59.60;;;;;;4219879;28;20437;-43
2021/04/15 07:23:28;;;;;;;0.00;0.00;;;15.40;59.70;;;;;;4223600;28;20402;-48
2021/04/15 07:26:08;;;;;;;0.00;0.00;;;15.40;60.00;;;;;;4193288;28;20040;-46
2021/04/15 07:29:00;;;;;;;0.00;0.00;;;15.40;60.10;;;;;;4223364;28;20058;-41
2021/04/15 07:31:45;;;;;;;0.38;0.20;;;15.30;59.80;;;;;;4224212;27;20054;-42
2021/04/15 07:34:25;;;;;;;0.00;0.00;;;15.30;60.10;;;;;;4199102;28;20056;-41
2021/04/15 07:37:14;;;;;;;0.00;0.00;;;15.20;60.90;;;;;;4205644;28;20131;-40
2021/04/15 07:40:01;;;;;;;0.00;0.00;;;15.10;61.50;;;;;;4195861;28;20051;-42
2021/04/15 07:42:44;;;;;;;0.00;0.00;;;15.10;61.70;;;;;;4220522;28;20413;-42
2021/04/15 07:45:11;;;;;;;0.00;0.00;;;15.10;60.90;;;;;;4220221;28;20044;-41
2021/04/15 07:48:07;;;;;;;0.00;0.00;;;15.10;60.60;;;;;;4222392;28;20093;-42
2021/04/15 07:51:08;;;;;;;0.00;0.00;;;15.00;60.20;;;;;;4139395;28;20045;-41
2021/04/15 07:53:49;;;;;;;1.88;1.17;;;15.00;60.00;;;;;;4201162;28;20493;-40
2021/04/15 07:56:38;;;;;;;;;;;14.90;60.20;;;;;;4208692;28;20489;-41
2021/04/15 07:59:19;;;;;;;10.85;0.93;;;14.90;60.50;;;;;;4215853;27;19956;-42
2021/04/15 08:01:54;;;;;;;0.10;0.10;;;14.80;60.60;;;;;;4209833;28;20414;-41
2021/04/15 08:04:49;;;;;;;0.15;0.15;;;14.70;60.70;;;;;;4217700;27;20044;-41
2021/04/15 08:07:42;;;;;;;0.47;0.47;;;14.70;60.90;;;;;;4194799;28;20094;-41
2021/04/15 08:10:32;;;;;;;0.00;0.00;;;14.60;61.50;;;;;;4224643;28;20048;-40
2021/04/15 08:13:12;;;;;;;0.00;0.00;;;14.60;61.90;;;;;;4217848;27;20058;-41
2021/04/15 08:15:46;;;;;;;0.10;0.10;;;14.60;62.30;;;;;;4192213;28;20048;-41
2021/04/15 08:18:17;;;;;;;0.20;0.20;;;14.60;63.20;;;;;;4209059;28;20052;-41
2021/04/15 08:21:07;;;;;;;1.35;0.75;;;14.60;63.50;;;;;;4209161;28;20083;-41
2021/04/15 08:24:04;;;;;;;0.00;0.00;;;14.60;63.70;;;;;;4207314;28;20048;-42
2021/04/15 08:26:55;;;;;;;0.00;0.00;;;14.70;63.40;;;;;;4209036;28;20081;-41
2021/04/15 08:29:39;;;;;;;0.30;0.30;;;14.70;63.20;;;;;;4222965;27;20056;-41
2021/04/15 08:32:13;;;;;;;0.00;0.00;;;14.70;63.10;;;;;;4204604;28;20044;-42
2021/04/15 08:34:47;;;;;;;1.10;1.08;;;14.70;62.50;;;;;;4209041;28;20048;-41
2021/04/15 08:37:31;;;;;;;0.00;0.00;;;14.70;61.90;;;;;;4213794;27;20066;-41
2021/04/15 08:40:03;;;;;;;0.43;0.43;;;14.70;62.60;;;;;;4211158;28;20047;-43
2021/04/15 08:42:39;;;;;;;0.00;0.00;;;14.70;61.60;;;;;;4208538;28;20052;-43
2021/04/15 08:45:28;;;;;;;2.40;1.35;;;14.70;61.40;;;;;;4223438;28;20035;-43
2021/04/15 08:48:03;;;;;;;0.00;0.00;;;14.70;60.70;;;;;;4206892;28;20101;-43
2021/04/15 08:50:39;;;;;;;0.00;0.00;;;14.70;60.80;;;;;;4212901;28;20090;-43
2021/04/15 08:53:16;;;;;;;0.00;0.00;;;14.70;60.70;;;;;;4225236;28;20055;-43
2021/04/15 08:55:41;;;;;;;0.00;0.00;;;14.70;60.90;;;;;;4209819;28;20051;-42
2021/04/15 08:58:23;;;;;;;0.00;0.00;;;14.80;60.60;;;;;;4225325;28;20059;-43
2021/04/15 09:00:51;;;;;;;0.30;0.30;;;14.80;59.80;;;;;;4224960;28;20051;-44
2021/04/15 09:03:27;;;;;;;0.00;0.00;;;14.80;59.80;;;;;;4225436;28;20051;-47
2021/04/15 09:06:24;;;;;;;0.10;0.10;;;14.80;60.10;;;;;;4208973;28;20082;-43
2021/04/15 09:09:01;;;;;;;0.00;0.00;;;14.90;60.70;;;;;;4217884;28;20052;-43
2021/04/15 09:11:33;;;;;;;0.30;0.30;;;14.80;59.60;;;;;;4191382;28;20495;-43
2021/04/15 09:14:02;;;;;;;0.10;0.10;;;14.90;60.20;;;;;;4223927;27;20097;-43
2021/04/15 09:16:38;;;;;;;2.72;0.65;;;14.90;60.80;;;;;;4241840;27;20051;-43
2021/04/15 09:19:10;;;;;;;1.63;0.43;;;14.90;60.60;;;;;;4241972;27;20665;-42
2021/04/15 09:21:48;;;;;;;0.10;0.10;;;14.90;60.00;;;;;;4216972;27;20490;-42
2021/04/15 09:24:18;;;;;;;0.10;0.10;;;15.00;59.70;;;;;;4218906;28;20072;-43
2021/04/15 09:27:04;;;;;;;0.10;0.10;;;15.00;59.90;;;;;;4225454;28;20051;-42
2021/04/15 09:29:36;;;;;;;0.00;0.00;;;15.00;59.60;;;;;;4191784;28;20040;-43
2021/04/15 09:32:04;;;;;;;0.20;0.20;;;15.10;59.30;;;;;;4191586;28;20044;-43
2021/04/15 09:34:57;;;;;;;0.00;0.00;;;15.00;58.90;;;;;;4191865;28;20091;-44
2021/04/15 09:37:59;;;;;;;0.28;0.28;;;15.10;59.60;;;;;;4208658;28;20056;-43
2021/04/15 09:40:28;;;;;;;0.00;0.00;;;15.10;58.30;;;;;;4220068;28;20492;-42
2021/04/15 09:43:02;;;;;;;0.08;0.08;;;15.10;58.20;;;;;;4207694;28;20056;-43
2021/04/15 09:45:30;;;;;;;0.00;0.00;;;15.10;58.20;;;;;;4217955;28;20098;-41
2021/04/15 09:48:07;;;;;;;2.28;0.90;;;15.10;58.60;;;;;;4224210;28;20047;-42
2021/04/15 09:50:38;;;;;;;3.97;0.90;;;15.20;57.90;;;;;;4224609;27;20619;-43
2021/04/15 09:53:11;;;;;;;0.77;0.77;;;15.10;57.50;;;;;;4216358;27;20109;-43
2021/04/15 09:55:52;;;;;;;0.00;0.00;;;15.20;57.40;;;;;;4219460;27;20039;-42
2021/04/15 09:58:22;;;;;;;0.30;0.30;;;15.20;57.90;;;;;;4215104;28;20090;-42
2021/04/15 10:00:48;;;;;;;0.00;0.00;;;15.20;58.30;;;;;;4219951;28;20063;-44
2021/04/15 10:03:16;;;;;;;0.10;0.10;;;15.30;57.90;;;;;;4203098;28;20043;-42
2021/04/15 10:06:06;;;;;;;0.52;0.52;;;15.30;57.70;;;;;;4218413;28;20067;-42
2021/04/15 10:08:35;;;;;;;0.00;0.00;;;15.30;57.40;;;;;;4214841;28;20044;-43
2021/04/15 10:11:04;;;;;;;0.00;0.00;;;15.30;56.80;;;;;;4216727;28;20426;-44
2021/04/15 10:13:33;;;;;;;0.10;0.10;;;15.30;56.60;;;;;;4222945;28;20331;-43
2021/04/15 10:15:58;;;;;;;0.00;0.00;;;15.30;56.60;;;;;;4233529;27;20074;-44
2021/04/15 10:18:45;;;;;;;0.00;0.00;;;15.30;56.50;;;;;;4209741;28;20048;-43
2021/04/15 10:21:34;;;;;;;0.35;0.35;;;15.30;56.00;;;;;;4189526;28;20156;-43
2021/04/15 10:24:26;;;;;;;0.28;0.28;;;15.30;55.60;;;;;;4221865;28;20047;-43
2021/04/15 10:27:38;;;;;;;0.65;0.65;;;15.30;55.60;;;;;;4223889;28;20440;-43
2021/04/15 10:30:23;;;;;;;0.00;0.00;;;15.30;55.60;;;;;;4152834;28;20045;-43
2021/04/15 10:33:18;;;;;;;0.03;0.03;;;15.40;55.50;;;;;;4171715;28;20488;-45
2021/04/15 10:36:06;;;;;;;0.98;0.98;;;15.40;55.00;;;;;;4199461;28;20183;-44
2021/04/15 10:38:58;;;;;;;0.00;0.00;;;15.40;54.50;;;;;;4223209;28;20079;-44
2021/04/15 10:41:55;;;;;;;0.10;0.10;;;15.40;54.30;;;;;;4211239;28;20054;-48
2021/04/15 10:44:28;;;;;;;0.10;0.10;;;15.40;54.00;;;;;;4206360;28;20450;-45
2021/04/15 10:47:02;;;;;;;0.10;0.10;;;15.40;53.90;;;;;;4210822;28;20058;-44
2021/04/15 10:49:33;;;;;;;0.00;0.00;;;15.50;54.00;;;;;;4223487;28;20043;-44
2021/04/15 10:52:00;;;;;;;0.00;0.00;;;15.50;53.60;;;;;;4214095;28;20571;-43
2021/04/15 10:54:26;;;;;;;1.02;1.02;;;15.50;54.10;;;;;;4207310;28;20051;-45
2021/04/15 10:56:49;;;;;;;0.00;0.00;;;15.50;54.00;;;;;;4207439;28;20383;-43
2021/04/15 10:59:26;;;;;;;0.00;0.00;;;15.50;53.40;;;;;;4207355;28;20604;-45
2021/04/15 11:01:48;;;;;;;0.00;0.00;;;15.60;53.60;;;;;;4206888;28;20146;-44
2021/04/15 11:04:27;;;;;;;0.00;0.00;;;15.60;53.70;;;;;;4207067;28;20052;-46
2021/04/15 11:06:53;;;;;;;0.98;0.98;;;15.60;53.30;;;;;;4210727;28;20499;-43
2021/04/15 11:09:22;;;;;;;0.40;0.40;;;15.60;53.70;;;;;;4205925;27;20063;-44
2021/04/15 11:11:54;;;;;;;0.10;0.10;;;15.60;52.90;;;;;;4243013;27;20554;-43
2021/04/15 11:14:15;;;;;;;0.28;0.28;;;15.60;53.40;;;;;;4227280;28;20051;-43
2021/04/15 11:16:37;;;;;;;0.15;0.15;;;15.60;53.50;;;;;;4227677;27;20047;-43
2021/04/15 11:19:07;;;;;;;0.00;0.00;;;15.50;53.40;;;;;;4227258;27;20048;-43
2021/04/15 11:21:35;;;;;;;0.10;0.10;;;15.50;52.60;;;;;;4227254;27;20047;-45
2021/04/15 11:24:17;;;;;;;0.13;0.13;;;15.50;53.10;;;;;;4227819;27;20708;-44
2021/04/15 11:26:46;;;;;;;0.65;0.65;;;15.50;51.90;;;;;;4227594;27;20044;-43
2021/04/15 11:29:21;;;;;;;0.00;0.00;;;15.50;52.20;;;;;;4227150;28;20051;-43
2021/04/15 11:31:42;;;;;;;0.00;0.00;;;15.50;52.30;;;;;;4209990;28;20051;-44
2021/04/15 11:34:10;;;;;;;0.00;0.00;;;15.50;52.50;;;;;;4213284;28;20383;-48
2021/04/15 11:36:34;;;;;;;0.00;0.00;;;15.60;53.20;;;;;;4215571;28;20048;-43
2021/04/15 11:39:13;;;;;;;0.00;0.00;;;15.60;53.30;;;;;;4194561;28;20407;-43
2021/04/15 11:41:52;;;;;;;0.00;0.00;;;15.60;52.80;;;;;;4209614;28;20056;-44
2021/04/15 11:44:25;;;;;;;0.13;0.13;;;15.60;51.90;;;;;;4209960;28;20052;-44
2021/04/15 11:46:51;;;;;;;0.00;0.00;;;15.60;52.20;;;;;;4209922;28;20055;-43
2021/04/15 11:49:22;;;;;;;0.05;0.05;;;15.60;52.20;;;;;;4209668;28;20052;-43
2021/04/15 11:51:58;;;;;;;0.00;0.00;;;15.60;52.80;;;;;;4212320;28;20403;-43
2021/04/15 11:54:29;;;;;;;0.20;0.20;;;15.60;52.70;;;;;;4226698;28;20047;-43
2021/04/15 11:56:50;;;;;;;0.00;0.00;;;15.60;52.50;;;;;;4226427;28;20139;-44
2021/04/15 11:59:23;;;;;;;0.00;0.00;;;15.60;52.10;;;;;;4211486;28;20047;-43
2021/04/15 12:01:45;;;;;;;0.03;0.03;;;15.50;51.80;;;;;;4226753;28;20051;-45
2021/04/15 12:04:06;;;;;;;0.00;0.00;;;15.50;52.00;;;;;;4210255;28;20131;-43
2021/04/15 12:06:33;;;;;;;0.10;0.10;;;15.50;51.90;;;;;;4210059;28;20474;-43
2021/04/15 12:08:58;;;;;;;0.00;0.00;;;15.50;52.00;;;;;;4209984;28;20408;-43
2021/04/15 12:11:24;;;;;;;0.00;0.00;;;15.50;52.10;;;;;;4226420;28;20089;-46
2021/04/15 12:13:48;;;;;;;0.25;0.25;;;15.50;52.10;;;;;;4226001;28;20067;-43
2021/04/15 12:16:21;;;;;;;0.32;0.32;;;15.50;52.00;;;;;;4225495;28;20051;-45
2021/04/15 12:18:47;;;;;;;0.00;0.00;;;15.50;51.90;;;;;;4223428;28;20069;-44
2021/04/15 12:21:17;;;;;;;0.00;0.00;;;15.40;52.00;;;;;;4226410;28;20048;-43
2021/04/15 12:23:46;;;;;;;0.17;0.17;;;15.40;52.40;;;;;;4226024;28;20055;-43
2021/04/15 12:26:36;;;;;;;0.00;0.00;;;15.40;52.20;;;;;;4226183;28;20104;-45
2021/04/15 12:29:08;;;;;;;0.15;0.15;;;15.30;52.50;;;;;;4226138;28;20118;-43
2021/04/15 12:31:38;;;;;;;0.00;0.00;;;15.30;52.60;;;;;;4225717;28;20085;-44
2021/04/15 12:34:29;;;;;;;0.30;0.30;;;15.30;52.50;;;;;;4225990;28;20139;-44
2021/04/15 12:36:57;;;;;;;1.40;0.43;;;15.30;51.70;;;;;;4223285;28;20051;-45
2021/04/15 12:39:22;;;;;;;0.00;0.00;;;15.30;51.20;;;;;;4210574;28;20052;-43
2021/04/15 12:41:44;;;;;;;0.15;0.15;;;15.30;51.30;;;;;;4225386;28;20188;-43
2021/04/15 12:44:12;;;;;;;0.32;0.32;;;15.30;51.80;;;;;;4225695;28;20054;-43
2021/04/15 12:46:35;;;;;;;0.08;0.08;;;15.30;52.20;;;;;;4221845;28;20517;-43
2021/04/15 12:48:59;;;;;;;0.00;0.00;;;15.30;51.70;;;;;;4192436;28;20068;-44
2021/04/15 12:51:24;;;;;;;0.00;0.00;;;15.20;51.50;;;;;;4225983;28;20039;-44
2021/04/15 12:53:47;;;;;;;0.43;0.43;;;15.20;50.80;;;;;;4225924;28;20054;-43
2021/04/15 12:56:13;;;;;;;0.55;0.55;;;15.20;51.50;;;;;;4225876;28;20044;-44
2021/04/15 12:58:34;;;;;;;0.00;0.00;;;15.20;51.10;;;;;;4225691;28;20607;-43
2021/04/15 13:00:59;;;;;;;0.00;0.00;;;15.20;50.70;;;;;;4225849;28;20047;-43
2021/04/15 13:03:25;;;;;;;0.10;0.10;;;15.10;50.50;;;;;;4225840;28;20477;-44
2021/04/15 13:06:09;;;;;;;0.40;0.40;;;15.20;50.70;;;;;;4225817;28;20058;-44